createdAt,value
2018-07-02T00:58:27.703Z,11.70
2018-07-02T01:00:56.462Z,11.70
2018-07-02T01:03:26.024Z,11.70
2018-07-02T01:05:54.554Z,11.60
2018-07-02T01:08:23.129Z,11.60
2018-07-02T01:10:51.547Z,11.50
2018-07-02T01:13:20.100Z,11.50
2018-07-02T01:15:49.076Z,11.50
2018-07-02T01:18:18.134Z,11.40
2018-07-02T01:20:46.792Z,11.50
2018-07-02T01:23:15.226Z,11.40
2018-07-02T01:25:43.893Z,11.30
2018-07-02T01:28:12.294Z,11.30
2018-07-02T01:30:40.732Z,11.30
2018-07-02T01:33:09.714Z,11.30
2018-07-02T01:35:38.286Z,11.20
2018-07-02T01:38:07.060Z,11.20
2018-07-02T01:40:35.479Z,11.20
2018-07-02T01:43:04.232Z,11.20
2018-07-02T01:45:32.672Z,11.20
2018-07-02T01:48:01.306Z,11.10
2018-07-02T01:50:29.795Z,11.00
2018-07-02T01:52:58.527Z,11.00
2018-07-02T01:55:27.010Z,10.90
2018-07-02T01:57:55.745Z,10.90
2018-07-02T02:00:24.776Z,10.90
2018-07-02T02:02:53.159Z,10.80
2018-07-02T02:05:21.571Z,10.80
2018-07-02T02:07:49.969Z,10.70
2018-07-02T02:10:18.662Z,10.70
2018-07-02T02:12:47.468Z,10.70
2018-07-02T02:15:16.117Z,10.70
2018-07-02T02:17:45.220Z,10.60
2018-07-02T02:20:13.835Z,10.60
2018-07-02T02:22:42.839Z,10.50
2018-07-02T02:25:11.613Z,10.50
2018-07-02T02:27:40.212Z,10.40
2018-07-02T02:30:08.715Z,10.50
2018-07-02T02:32:37.366Z,10.50
2018-07-02T02:35:06.952Z,10.50
2018-07-02T02:37:35.656Z,10.50
2018-07-02T02:40:04.796Z,10.40
2018-07-02T02:42:33.665Z,10.40
2018-07-02T02:45:02.809Z,10.30
2018-07-02T02:47:31.639Z,10.30
2018-07-02T02:50:00.051Z,10.20
2018-07-02T02:52:29.073Z,10.20
2018-07-02T02:54:57.847Z,10.10
2018-07-02T02:57:27.375Z,10.10
2018-07-02T02:59:56.567Z,10.00
2018-07-02T03:02:25.320Z,10.00
2018-07-02T03:04:53.980Z,9.90
2018-07-02T03:07:22.600Z,9.80
2018-07-02T03:09:51.233Z,9.80
2018-07-02T03:12:19.592Z,9.80
2018-07-02T03:14:48.348Z,9.70
2018-07-02T03:17:16.829Z,9.70
2018-07-02T03:19:45.247Z,9.70
2018-07-02T03:22:13.628Z,9.70
2018-07-02T03:24:42.504Z,9.60
2018-07-02T03:27:12.233Z,9.60
2018-07-02T03:29:40.852Z,9.50
2018-07-02T03:32:09.621Z,9.50
2018-07-02T03:34:38.405Z,9.50
2018-07-02T03:37:07.047Z,9.50
2018-07-02T03:39:35.704Z,9.50
2018-07-02T03:42:05.671Z,9.50
2018-07-02T03:44:34.506Z,9.50
2018-07-02T03:47:02.966Z,9.50
2018-07-02T03:49:31.396Z,9.50
2018-07-02T03:51:59.844Z,9.50
2018-07-02T03:54:28.412Z,9.60
2018-07-02T03:56:57.359Z,9.60
2018-07-02T03:59:25.938Z,9.70
2018-07-02T04:01:54.847Z,9.70
2018-07-02T04:04:23.718Z,9.70
2018-07-02T04:06:52.400Z,9.70
2018-07-02T04:09:21.362Z,9.80
2018-07-02T04:11:49.809Z,9.80
2018-07-02T04:14:18.427Z,9.80
2018-07-02T04:16:47.178Z,9.80
2018-07-02T04:19:15.887Z,9.90
2018-07-02T04:21:44.379Z,9.90
2018-07-02T04:24:13.050Z,10.00
2018-07-02T04:26:42.160Z,10.00
2018-07-02T04:29:11.403Z,10.00
2018-07-02T04:31:39.826Z,10.10
2018-07-02T04:34:08.986Z,10.10
2018-07-02T04:36:37.364Z,10.20
2018-07-02T04:39:07.939Z,10.30
2018-07-02T04:41:36.626Z,10.30
2018-07-02T04:44:05.850Z,10.40
2018-07-02T04:46:34.728Z,10.40
2018-07-02T04:49:03.232Z,10.40
2018-07-02T04:51:31.919Z,10.50
2018-07-02T04:54:00.507Z,10.60
2018-07-02T04:56:30.346Z,10.60
2018-07-02T04:58:59.433Z,10.70
2018-07-02T05:01:27.895Z,10.70
2018-07-02T05:03:58.199Z,10.80
2018-07-02T05:06:26.939Z,10.90
2018-07-02T05:08:55.575Z,11.00
2018-07-02T05:11:24.095Z,11.10
2018-07-02T05:13:52.638Z,11.20
2018-07-02T05:16:21.241Z,11.30
2018-07-02T05:18:49.862Z,11.30
2018-07-02T05:21:18.299Z,11.40
2018-07-02T05:23:46.840Z,11.50
2018-07-02T05:26:15.355Z,11.60
2018-07-02T05:28:44.363Z,11.70
2018-07-02T05:31:13.175Z,11.70
2018-07-02T05:33:41.584Z,11.80
2018-07-02T05:36:10.620Z,11.90
2018-07-02T05:38:39.130Z,12.00
2018-07-02T05:41:07.539Z,12.10
2018-07-02T05:43:37.223Z,12.20
2018-07-02T05:46:05.678Z,12.40
2018-07-02T05:48:34.250Z,12.60
2018-07-02T05:51:03.040Z,12.90
2018-07-02T05:53:32.573Z,13.30
2018-07-02T05:56:01.277Z,14.20
2018-07-02T05:58:29.921Z,15.40
2018-07-02T06:00:58.775Z,17.30
2018-07-02T06:03:28.331Z,19.00
2018-07-02T06:05:57.544Z,20.70
2018-07-02T06:08:25.993Z,21.50
2018-07-02T06:13:23.021Z,23.00
2018-07-02T06:15:51.473Z,23.80
2018-07-02T06:18:20.102Z,24.20
2018-07-02T06:20:49.551Z,25.00
2018-07-02T06:23:18.030Z,25.10
2018-07-02T06:25:46.476Z,24.80
2018-07-02T06:28:16.329Z,24.50
2018-07-02T06:30:45.037Z,24.00
2018-07-02T06:33:13.467Z,24.20
2018-07-02T06:38:10.209Z,24.30
2018-07-02T06:40:39.007Z,25.10
2018-07-02T06:43:08.135Z,25.20
2018-07-02T06:45:37.632Z,25.50
2018-07-02T06:48:06.124Z,25.60
2018-07-02T06:50:35.154Z,24.40
2018-07-02T06:53:03.617Z,24.30
2018-07-02T06:55:32.139Z,24.90
2018-07-02T06:58:00.823Z,25.90
2018-07-02T07:00:29.400Z,25.80
2018-07-02T07:02:58.223Z,26.10
2018-07-02T07:05:27.513Z,26.70
2018-07-02T07:07:56.258Z,27.50
2018-07-02T07:10:25.614Z,26.80
2018-07-02T07:12:54.092Z,25.80
2018-07-02T07:15:22.581Z,25.30
2018-07-02T07:17:52.200Z,26.10
2018-07-02T07:20:21.319Z,26.60
2018-07-02T07:22:50.449Z,26.70
2018-07-02T07:25:18.990Z,26.40
2018-07-02T07:27:47.635Z,26.70
2018-07-02T07:30:16.422Z,27.20
2018-07-02T07:32:44.809Z,27.50
2018-07-02T07:35:13.265Z,28.70
2018-07-02T07:37:41.801Z,29.00
2018-07-02T07:40:10.641Z,29.60
2018-07-02T07:42:39.520Z,29.80
2018-07-02T07:45:08.296Z,29.90
2018-07-02T07:47:37.021Z,29.30
2018-07-02T07:50:06.357Z,28.90
2018-07-02T07:52:35.451Z,28.90
2018-07-02T07:55:04.619Z,28.90
2018-07-02T07:57:33.372Z,28.40
2018-07-02T08:00:02.119Z,28.30
2018-07-02T08:02:30.597Z,28.00
2018-07-02T08:04:59.151Z,28.50
2018-07-02T08:07:27.653Z,28.70
2018-07-02T08:09:56.542Z,28.80
2018-07-02T08:12:26.020Z,28.10
2018-07-02T08:14:54.700Z,28.80
2018-07-02T08:17:23.410Z,28.80
2018-07-02T08:19:52.113Z,29.00
2018-07-02T08:22:20.613Z,28.70
2018-07-02T08:24:49.282Z,29.50
2018-07-02T08:27:17.996Z,29.90
2018-07-02T08:29:47.901Z,30.30
2018-07-02T08:32:16.825Z,31.20
2018-07-02T08:34:45.473Z,30.90
2018-07-02T08:37:14.197Z,30.30
2018-07-02T08:42:11.397Z,30.70
2018-07-02T08:44:39.976Z,31.20
2018-07-02T08:47:08.628Z,31.20
2018-07-02T08:49:37.291Z,31.60
2018-07-02T08:52:06.218Z,31.50
2018-07-02T08:54:35.666Z,31.40
2018-07-02T08:57:04.394Z,31.60
2018-07-02T08:59:33.330Z,31.80
2018-07-02T09:02:01.800Z,31.90
2018-07-02T09:04:31.692Z,32.10
2018-07-02T09:07:00.160Z,32.10
2018-07-02T09:09:28.647Z,32.10
2018-07-02T09:11:57.779Z,31.60
2018-07-02T09:14:26.303Z,32.00
2018-07-02T09:16:55.073Z,31.70
2018-07-02T09:19:24.479Z,31.70
2018-07-02T09:21:53.245Z,31.00
2018-07-02T09:24:25.231Z,31.20
2018-07-02T09:26:53.831Z,31.00
2018-07-02T09:29:22.809Z,31.60
2018-07-02T09:31:52.349Z,32.20
2018-07-02T09:34:21.148Z,32.30
2018-07-02T09:36:50.920Z,32.60
2018-07-02T09:39:19.502Z,32.70
2018-07-02T09:41:48.420Z,32.80
2018-07-02T09:46:46.308Z,32.20
2018-07-02T09:49:15.566Z,32.30
2018-07-02T09:51:44.641Z,32.50
2018-07-02T09:54:13.636Z,32.50
2018-07-02T09:56:42.469Z,32.90
2018-07-02T09:59:11.105Z,32.80
2018-07-02T10:01:40.197Z,32.20
2018-07-02T10:04:09.165Z,32.00
2018-07-02T10:06:38.034Z,31.90
2018-07-02T10:09:10.492Z,32.20
2018-07-02T10:11:39.649Z,32.20
2018-07-02T10:14:08.301Z,31.90
2018-07-02T10:16:36.887Z,31.90
2018-07-02T10:19:06.151Z,31.20
2018-07-02T10:21:35.313Z,31.30
2018-07-02T10:24:04.210Z,31.60
2018-07-02T10:26:32.893Z,32.00
2018-07-02T10:29:01.542Z,32.00
2018-07-02T10:31:30.047Z,31.80
2018-07-02T10:33:58.596Z,32.00
2018-07-02T10:36:27.068Z,31.60
2018-07-02T10:38:56.179Z,31.70
2018-07-02T10:41:24.781Z,32.20
2018-07-02T10:43:54.623Z,31.70
2018-07-02T10:46:23.394Z,31.10
2018-07-02T10:48:52.580Z,30.90
2018-07-02T10:51:21.054Z,30.90
2018-07-02T10:53:50.060Z,30.60
2018-07-02T10:56:18.969Z,30.10
2018-07-02T10:58:48.418Z,29.60
2018-07-02T11:01:17.439Z,29.90
2018-07-02T11:03:46.070Z,30.30
2018-07-02T11:06:14.468Z,30.30
2018-07-02T11:08:43.138Z,29.60
2018-07-02T11:11:12.243Z,29.20
2018-07-02T11:13:41.476Z,29.00
2018-07-02T11:16:09.951Z,28.90
2018-07-02T11:18:39.148Z,29.00
2018-07-02T11:21:08.178Z,28.60
2018-07-02T11:23:36.991Z,28.20
2018-07-02T11:26:06.212Z,27.90
2018-07-02T11:28:34.773Z,27.70
2018-07-02T11:31:04.134Z,27.40
2018-07-02T11:33:33.102Z,27.40
2018-07-02T11:36:03.238Z,27.30
2018-07-02T11:38:32.454Z,27.10
2018-07-02T11:41:01.050Z,26.50
2018-07-02T11:43:29.491Z,26.50
2018-07-02T11:45:58.322Z,26.40
2018-07-02T11:48:30.899Z,26.00
2018-07-02T11:51:00.518Z,26.20
2018-07-02T11:53:29.462Z,26.30
2018-07-02T11:55:57.865Z,26.30
2018-07-02T11:58:26.828Z,26.50
2018-07-02T12:03:24.513Z,26.60
2018-07-02T12:05:53.081Z,26.70
2018-07-02T12:08:22.229Z,26.30
2018-07-02T12:10:51.125Z,26.20
2018-07-02T12:13:19.887Z,26.10
2018-07-02T12:18:17.083Z,26.20
2018-07-02T12:20:45.617Z,26.10
2018-07-02T12:23:14.888Z,26.20
2018-07-02T12:25:43.764Z,26.30
2018-07-02T12:28:12.716Z,26.40
2018-07-02T12:33:10.404Z,26.70
2018-07-02T12:35:39.251Z,26.70
2018-07-02T12:38:08.018Z,26.40
2018-07-02T12:40:37.105Z,26.40
2018-07-02T12:43:06.242Z,26.30
2018-07-02T12:45:34.694Z,26.30
2018-07-02T12:48:03.196Z,26.20
2018-07-02T12:50:31.942Z,26.30
2018-07-02T12:53:00.834Z,26.40
2018-07-02T12:55:29.499Z,26.50
2018-07-02T12:57:58.270Z,26.60
2018-07-02T13:03:01.736Z,26.50
2018-07-02T13:05:53.199Z,26.00
2018-07-02T13:08:22.785Z,26.00
2018-07-02T13:10:52.189Z,26.20
2018-07-02T13:13:21.058Z,25.90
2018-07-02T13:15:49.696Z,26.00
2018-07-02T13:18:18.662Z,26.10
2018-07-02T13:20:47.282Z,26.10
2018-07-02T13:23:15.775Z,26.10
2018-07-02T13:25:44.209Z,26.30
2018-07-02T13:28:13.326Z,26.40
2018-07-02T13:30:42.835Z,26.10
2018-07-02T13:33:11.565Z,26.00
2018-07-02T13:35:40.042Z,25.70
2018-07-02T13:38:08.845Z,25.60
2018-07-02T13:40:37.624Z,25.50
2018-07-02T13:43:06.742Z,25.90
2018-07-02T13:45:35.933Z,26.00
2018-07-02T13:48:05.246Z,26.00
2018-07-02T13:50:34.825Z,25.90
2018-07-02T13:53:03.415Z,25.90
2018-07-02T13:55:32.451Z,25.90
2018-07-02T13:58:01.127Z,25.70
2018-07-02T14:00:29.714Z,25.80
2018-07-02T14:02:58.342Z,25.70
2018-07-02T14:05:26.908Z,25.70
2018-07-02T14:07:55.922Z,25.90
2018-07-02T14:10:24.409Z,25.90
2018-07-02T14:12:53.072Z,26.00
2018-07-02T14:15:21.740Z,25.70
2018-07-02T14:17:50.200Z,25.80
2018-07-02T14:20:18.880Z,25.80
2018-07-02T14:22:48.562Z,25.90
2018-07-02T14:25:17.886Z,25.90
2018-07-02T14:27:46.537Z,26.00
2018-07-02T14:30:15.193Z,25.90
2018-07-02T14:32:43.823Z,26.00
2018-07-02T14:35:12.762Z,25.90
2018-07-02T14:37:41.584Z,25.80
2018-07-02T14:42:38.594Z,25.40
2018-07-02T14:45:07.359Z,25.50
2018-07-02T14:47:36.373Z,25.30
2018-07-02T14:50:05.222Z,25.30
2018-07-02T14:52:34.481Z,25.40
2018-07-02T14:55:04.585Z,25.50
2018-07-02T14:57:33.283Z,25.60
2018-07-02T15:00:02.473Z,25.70
2018-07-02T15:02:30.911Z,25.50
2018-07-02T15:04:59.414Z,25.30
2018-07-02T15:07:29.126Z,25.30
2018-07-02T15:09:57.523Z,25.30
2018-07-02T15:12:25.979Z,25.10
2018-07-02T15:14:54.589Z,25.20
2018-07-02T15:17:23.157Z,25.20
2018-07-02T15:19:51.904Z,25.20
2018-07-02T15:22:20.331Z,25.30
2018-07-02T15:24:49.227Z,25.10
2018-07-02T15:27:18.064Z,25.10
2018-07-02T15:29:47.172Z,25.00
2018-07-02T15:32:17.031Z,24.90
2018-07-02T15:34:45.709Z,24.80
2018-07-02T15:37:14.798Z,24.90
2018-07-02T15:39:43.393Z,24.80
2018-07-02T15:42:11.808Z,24.70
2018-07-02T15:44:41.613Z,24.70
2018-07-02T15:47:10.098Z,24.60
2018-07-02T15:49:39.125Z,24.60
2018-07-02T15:52:07.964Z,24.60
2018-07-02T15:54:36.956Z,24.60
2018-07-02T15:57:05.478Z,24.70
2018-07-02T15:59:34.605Z,24.70
2018-07-02T16:02:04.367Z,24.70
2018-07-02T16:04:32.842Z,24.60
2018-07-02T16:07:01.596Z,24.60
2018-07-02T16:09:30.034Z,24.50
2018-07-02T16:14:27.621Z,24.20
2018-07-02T16:16:56.169Z,24.10
2018-07-02T16:19:25.252Z,24.00
2018-07-02T16:21:54.226Z,23.90
2018-07-02T16:24:22.774Z,23.90
2018-07-02T16:26:51.358Z,23.80
2018-07-02T16:29:20.500Z,23.80
2018-07-02T16:31:49.205Z,23.90
2018-07-02T16:34:17.616Z,24.00
2018-07-02T16:36:46.099Z,24.00
2018-07-02T16:39:14.625Z,24.00
2018-07-02T16:41:43.428Z,23.90
2018-07-02T16:44:12.380Z,23.80
2018-07-02T16:46:41.249Z,23.70
2018-07-02T16:49:10.014Z,23.60
2018-07-02T16:54:06.864Z,23.50
2018-07-02T16:56:36.832Z,23.50
2018-07-02T16:59:08.709Z,23.50
2018-07-02T17:01:37.663Z,23.40
2018-07-02T17:04:06.610Z,23.30
2018-07-02T17:06:35.931Z,23.20
2018-07-02T17:09:07.512Z,23.20
2018-07-02T17:11:36.535Z,23.10
2018-07-02T17:14:05.174Z,23.00
2018-07-02T17:16:33.766Z,22.90
2018-07-02T17:19:02.759Z,22.90
2018-07-02T17:21:31.386Z,22.90
2018-07-02T17:23:59.893Z,22.80
2018-07-02T17:26:28.343Z,22.70
2018-07-02T17:28:56.756Z,22.60
2018-07-02T17:31:25.301Z,22.60
2018-07-02T17:33:53.938Z,22.60
2018-07-02T17:36:22.494Z,22.50
2018-07-02T17:38:52.708Z,22.40
2018-07-02T17:41:21.245Z,22.40
2018-07-02T17:43:49.760Z,22.30
2018-07-02T17:46:18.492Z,22.30
2018-07-02T17:48:47.756Z,22.10
2018-07-02T17:51:16.593Z,22.10
2018-07-02T17:53:45.124Z,22.00
2018-07-02T17:56:14.059Z,22.00
2018-07-02T17:58:43.468Z,21.90
2018-07-02T18:01:11.971Z,21.80
2018-07-02T18:03:40.667Z,21.70
2018-07-02T18:06:09.208Z,21.60
2018-07-02T18:08:37.641Z,21.50
2018-07-02T18:11:06.457Z,21.40
2018-07-02T18:13:35.685Z,21.40
2018-07-02T18:16:04.479Z,21.40
2018-07-02T18:18:33.978Z,21.20
2018-07-02T18:21:02.509Z,21.20
2018-07-02T18:23:31.450Z,21.10
2018-07-02T18:28:29.081Z,21.00
2018-07-02T18:30:57.918Z,20.90
2018-07-02T18:33:26.945Z,20.80
2018-07-02T18:35:56.251Z,20.70
2018-07-02T18:38:24.997Z,20.70
2018-07-02T18:40:53.780Z,20.60
2018-07-02T18:43:22.491Z,20.50
2018-07-02T18:45:50.976Z,20.40
2018-07-02T18:48:19.603Z,20.40
2018-07-02T18:50:48.249Z,20.30
2018-07-02T18:53:17.016Z,20.20
2018-07-02T18:55:45.473Z,20.10
2018-07-02T18:58:13.943Z,20.00
2018-07-02T19:00:42.556Z,19.90
2018-07-02T19:03:11.443Z,19.80
2018-07-02T19:05:40.262Z,19.70
2018-07-02T19:08:09.150Z,19.60
2018-07-02T19:10:38.011Z,19.50
2018-07-02T19:13:06.659Z,19.40
2018-07-02T19:15:35.678Z,19.30
2018-07-02T19:18:04.271Z,19.30
2018-07-02T19:20:32.684Z,19.20
2018-07-02T19:23:01.637Z,19.00
2018-07-02T19:25:31.883Z,18.90
2018-07-02T19:28:00.375Z,18.80
2018-07-02T19:30:29.626Z,18.70
2018-07-02T19:32:58.275Z,18.70
2018-07-02T19:35:27.804Z,18.60
2018-07-02T19:37:56.430Z,18.50
2018-07-02T19:40:25.048Z,18.40
2018-07-02T19:42:53.774Z,18.30
2018-07-02T19:45:22.486Z,18.20
2018-07-02T19:47:51.097Z,18.10
2018-07-02T19:50:20.068Z,18.00
2018-07-02T19:52:48.574Z,17.90
2018-07-02T19:55:17.324Z,17.80
2018-07-02T19:57:45.985Z,17.60
2018-07-02T20:00:17.592Z,17.50
2018-07-02T20:02:46.281Z,17.40
2018-07-02T20:05:14.932Z,17.30
2018-07-02T20:07:43.830Z,17.10
2018-07-02T20:10:13.130Z,17.00
2018-07-02T20:12:41.812Z,16.90
2018-07-02T20:15:10.803Z,16.80
2018-07-02T20:17:39.467Z,16.70
2018-07-02T20:20:10.182Z,16.60
2018-07-02T20:22:39.810Z,16.60
2018-07-02T20:25:09.038Z,16.50
2018-07-02T20:30:08.400Z,16.40
2018-07-02T20:32:38.578Z,16.30
2018-07-02T20:35:08.673Z,16.20
2018-07-02T20:37:37.372Z,16.10
2018-07-02T20:40:06.072Z,16.00
2018-07-02T20:42:34.857Z,15.90
2018-07-02T20:45:03.844Z,15.80
2018-07-02T20:47:32.773Z,15.70
2018-07-02T20:50:01.465Z,15.60
2018-07-02T20:52:29.975Z,15.60
2018-07-02T20:54:58.401Z,15.50
2018-07-02T20:57:26.971Z,15.40
2018-07-02T20:59:55.383Z,15.30
2018-07-02T21:02:23.790Z,15.30
2018-07-02T21:04:53.053Z,15.20
2018-07-02T21:07:21.822Z,15.20
2018-07-02T21:09:50.484Z,15.10
2018-07-02T21:12:19.256Z,15.00
2018-07-02T21:14:47.883Z,14.90
2018-07-02T21:17:16.350Z,14.90
2018-07-02T21:19:44.845Z,14.90
2018-07-02T21:22:13.819Z,14.80
2018-07-02T21:24:42.941Z,14.70
2018-07-02T21:27:11.347Z,14.70
2018-07-02T21:29:39.784Z,14.60
2018-07-02T21:32:08.369Z,14.60
2018-07-02T21:34:37.032Z,14.50
2018-07-02T21:37:06.509Z,14.50
2018-07-02T21:39:34.971Z,14.40
2018-07-02T21:42:03.808Z,14.40
2018-07-02T21:44:32.479Z,14.30
2018-07-02T21:47:00.943Z,14.30
2018-07-02T21:49:30.213Z,14.20
2018-07-02T21:51:58.684Z,14.20
2018-07-02T21:54:27.188Z,14.10
